createdAt,value
2018-06-11T00:00:45.023Z,1005.88
2018-06-11T00:01:45.078Z,1005.86
2018-06-11T00:02:45.028Z,1005.87
2018-06-11T00:03:45.029Z,1005.87
2018-06-11T00:04:45.030Z,1005.91
2018-06-11T00:05:45.030Z,1005.90
2018-06-11T00:06:45.038Z,1005.93
2018-06-11T00:07:45.032Z,1005.94
2018-06-11T00:08:45.039Z,1005.94
2018-06-11T00:09:45.034Z,1005.96
2018-06-11T00:10:45.035Z,1005.92
2018-06-11T00:11:45.039Z,1005.94
2018-06-11T00:12:45.037Z,1005.92
2018-06-11T00:13:45.035Z,1005.92
2018-06-11T00:14:45.039Z,1005.94
2018-06-11T00:15:45.039Z,1005.97
2018-06-11T00:16:45.039Z,1005.99
2018-06-11T00:17:45.039Z,1005.98
2018-06-11T00:18:45.057Z,1006.01
2018-06-11T00:19:45.043Z,1006.02
2018-06-11T00:20:45.044Z,1006.07
2018-06-11T00:21:45.044Z,1006.08
2018-06-11T00:22:45.050Z,1006.11
2018-06-11T00:23:45.048Z,1006.14
2018-06-11T00:24:45.048Z,1006.14
2018-06-11T00:25:45.049Z,1006.17
2018-06-11T00:26:45.053Z,1006.16
2018-06-11T00:27:45.056Z,1006.16
2018-06-11T00:28:45.052Z,1006.14
2018-06-11T00:29:45.053Z,1006.19
2018-06-11T00:30:45.052Z,1006.20
2018-06-11T00:31:45.052Z,1006.20
2018-06-11T00:32:45.057Z,1006.23
2018-06-11T00:33:45.055Z,1006.23
2018-06-11T00:34:45.062Z,1006.21
2018-06-11T00:35:45.060Z,1006.24
2018-06-11T00:36:45.058Z,1006.24
2018-06-11T00:37:45.065Z,1006.23
2018-06-11T00:38:45.062Z,1006.25
2018-06-11T00:39:45.061Z,1006.23
2018-06-11T00:40:45.062Z,1006.28
2018-06-11T00:41:45.066Z,1006.29
2018-06-11T00:42:45.066Z,1006.28
2018-06-11T00:43:45.064Z,1006.27
2018-06-11T00:44:45.067Z,1006.29
2018-06-11T00:45:45.068Z,1006.30
2018-06-11T00:46:45.069Z,1006.32
2018-06-11T00:47:45.063Z,1006.29
2018-06-11T00:48:45.066Z,1006.32
2018-06-11T00:49:45.068Z,1006.36
2018-06-11T00:50:45.072Z,1006.34
2018-06-11T00:51:45.073Z,1006.34
2018-06-11T00:52:45.076Z,1006.35
2018-06-11T00:53:45.073Z,1006.36
2018-06-11T00:54:45.075Z,1006.37
2018-06-11T00:55:45.075Z,1006.38
2018-06-11T00:56:45.087Z,1006.41
2018-06-11T00:57:45.079Z,1006.44
2018-06-11T00:58:45.079Z,1006.44
2018-06-11T00:59:45.082Z,1006.41
2018-06-11T01:00:45.081Z,1006.38
2018-06-11T01:01:45.081Z,1006.38
2018-06-11T01:02:45.082Z,1006.36
2018-06-11T01:03:45.078Z,1006.33
2018-06-11T01:04:45.082Z,1006.33
2018-06-11T01:05:45.080Z,1006.31
2018-06-11T01:06:45.082Z,1006.30
2018-06-11T01:07:45.087Z,1006.28
2018-06-11T01:08:45.086Z,1006.30
2018-06-11T01:09:45.089Z,1006.23
2018-06-11T01:10:45.087Z,1006.24
2018-06-11T01:11:45.087Z,1006.21
2018-06-11T01:12:45.089Z,1006.25
2018-06-11T01:13:45.090Z,1006.29
2018-06-11T01:14:45.092Z,1006.22
2018-06-11T01:15:45.092Z,1006.16
2018-06-11T01:16:45.093Z,1006.22
2018-06-11T01:17:45.097Z,1006.17
2018-06-11T01:18:45.095Z,1006.22
2018-06-11T01:19:45.100Z,1006.21
2018-06-11T01:20:45.097Z,1006.24
2018-06-11T01:21:45.097Z,1006.26
2018-06-11T01:22:45.093Z,1006.27
2018-06-11T01:23:45.102Z,1006.29
2018-06-11T01:24:45.099Z,1006.31
2018-06-11T01:25:45.100Z,1006.29
2018-06-11T01:26:45.100Z,1006.31
2018-06-11T01:27:45.098Z,1006.35
2018-06-11T01:28:45.102Z,1006.32
2018-06-11T01:29:45.102Z,1006.34
2018-06-11T01:30:45.109Z,1006.35
2018-06-11T01:31:45.106Z,1006.37
2018-06-11T01:32:45.104Z,1006.36
2018-06-11T01:33:45.110Z,1006.37
2018-06-11T01:34:45.107Z,1006.40
2018-06-11T01:35:45.107Z,1006.42
2018-06-11T01:36:45.107Z,1006.42
2018-06-11T01:37:45.109Z,1006.40
2018-06-11T01:38:45.109Z,1006.42
2018-06-11T01:39:45.104Z,1006.40
2018-06-11T01:40:45.111Z,1006.43
2018-06-11T01:41:45.110Z,1006.39
2018-06-11T01:42:45.111Z,1006.43
2018-06-11T01:43:45.112Z,1006.45
2018-06-11T01:44:45.112Z,1006.45
2018-06-11T01:45:45.109Z,1006.47
2018-06-11T01:46:45.112Z,1006.48
2018-06-11T01:47:45.113Z,1006.44
2018-06-11T01:48:45.115Z,1006.47
2018-06-11T01:49:45.115Z,1006.48
2018-06-11T01:50:45.122Z,1006.45
2018-06-11T01:51:45.117Z,1006.40
2018-06-11T01:52:45.117Z,1006.45
2018-06-11T01:53:45.118Z,1006.45
2018-06-11T01:54:45.118Z,1006.47
2018-06-11T01:55:45.121Z,1006.51
2018-06-11T01:56:45.115Z,1006.52
2018-06-11T01:57:45.117Z,1006.55
2018-06-11T01:58:45.121Z,1006.52
2018-06-11T01:59:45.117Z,1006.56
2018-06-11T02:00:45.122Z,1006.55
2018-06-11T02:01:45.121Z,1006.47
2018-06-11T02:02:45.121Z,1006.49
2018-06-11T02:03:45.122Z,1006.48
2018-06-11T02:04:45.121Z,1006.46
2018-06-11T02:05:45.124Z,1006.43
2018-06-11T02:06:45.137Z,1006.43
2018-06-11T02:07:45.123Z,1006.42
2018-06-11T02:08:45.123Z,1006.43
2018-06-11T02:09:45.127Z,1006.44
2018-06-11T02:10:45.125Z,1006.44
2018-06-11T02:11:45.125Z,1006.45
2018-06-11T02:12:45.120Z,1006.45
2018-06-11T02:13:45.124Z,1006.49
2018-06-11T02:14:45.127Z,1006.48
2018-06-11T02:15:45.126Z,1006.45
2018-06-11T02:16:45.127Z,1006.42
2018-06-11T02:17:45.127Z,1006.41
2018-06-11T02:18:45.130Z,1006.39
2018-06-11T02:19:45.128Z,1006.46
2018-06-11T02:20:45.128Z,1006.49
2018-06-11T02:21:45.129Z,1006.49
2018-06-11T02:22:45.132Z,1006.51
2018-06-11T02:23:45.129Z,1006.50
2018-06-11T02:24:45.129Z,1006.50
2018-06-11T02:25:45.130Z,1006.49
2018-06-11T02:26:45.134Z,1006.47
2018-06-11T02:27:45.141Z,1006.41
2018-06-11T02:28:45.131Z,1006.43
2018-06-11T02:29:45.130Z,1006.43
2018-06-11T02:30:45.131Z,1006.41
2018-06-11T02:31:45.132Z,1006.41
2018-06-11T02:32:45.136Z,1006.42
2018-06-11T02:33:45.133Z,1006.42
2018-06-11T02:34:45.132Z,1006.41
2018-06-11T02:35:45.134Z,1006.38
2018-06-11T02:36:45.136Z,1006.40
2018-06-11T02:37:45.133Z,1006.39
2018-06-11T02:38:45.138Z,1006.42
2018-06-11T02:39:45.133Z,1006.41
2018-06-11T02:40:45.133Z,1006.42
2018-06-11T02:41:45.133Z,1006.43
2018-06-11T02:42:45.133Z,1006.39
2018-06-11T02:43:45.133Z,1006.38
2018-06-11T02:44:45.133Z,1006.35
2018-06-11T02:45:45.134Z,1006.39
2018-06-11T02:46:45.133Z,1006.39
2018-06-11T02:47:45.135Z,1006.42
2018-06-11T02:48:45.140Z,1006.38
2018-06-11T02:49:45.135Z,1006.43
2018-06-11T02:50:45.134Z,1006.40
2018-06-11T02:51:45.133Z,1006.41
2018-06-11T02:52:45.138Z,1006.40
2018-06-11T02:53:45.137Z,1006.40
2018-06-11T02:54:45.135Z,1006.37
2018-06-11T02:55:45.133Z,1006.40
2018-06-11T02:56:45.137Z,1006.39
2018-06-11T02:57:45.134Z,1006.41
2018-06-11T02:58:45.135Z,1006.44
2018-06-11T02:59:45.134Z,1006.40
2018-06-11T03:00:45.139Z,1006.40
2018-06-11T03:01:45.135Z,1006.41
2018-06-11T03:02:45.141Z,1006.43
2018-06-11T03:03:45.137Z,1006.39
2018-06-11T03:04:45.135Z,1006.44
2018-06-11T03:05:45.135Z,1006.44
2018-06-11T03:06:45.135Z,1006.40
2018-06-11T03:07:45.136Z,1006.41
2018-06-11T03:08:45.136Z,1006.41
2018-06-11T03:09:45.138Z,1006.40
2018-06-11T03:10:45.141Z,1006.47
2018-06-11T03:11:45.133Z,1006.50
2018-06-11T03:12:45.135Z,1006.52
2018-06-11T03:13:45.136Z,1006.55
2018-06-11T03:14:45.134Z,1006.59
2018-06-11T03:15:45.133Z,1006.64
2018-06-11T03:16:45.135Z,1006.59
2018-06-11T03:17:45.141Z,1006.63
2018-06-11T03:18:45.140Z,1006.64
2018-06-11T03:19:45.134Z,1006.65
2018-06-11T03:20:45.135Z,1006.65
2018-06-11T03:21:45.163Z,1006.63
2018-06-11T03:22:45.136Z,1006.63
2018-06-11T03:23:45.166Z,1006.61
2018-06-11T03:24:45.141Z,1006.65
2018-06-11T03:25:45.137Z,1006.69
2018-06-11T03:26:45.139Z,1006.72
2018-06-11T03:27:45.136Z,1006.79
2018-06-11T03:28:45.138Z,1006.80
2018-06-11T03:29:45.134Z,1006.83
2018-06-11T03:30:45.133Z,1006.87
2018-06-11T03:31:45.136Z,1006.85
2018-06-11T03:32:45.138Z,1006.86
2018-06-11T03:33:45.136Z,1006.88
2018-06-11T03:34:45.139Z,1006.85
2018-06-11T03:35:45.187Z,1006.86
2018-06-11T03:36:45.139Z,1006.88
2018-06-11T03:37:45.137Z,1006.89
2018-06-11T03:38:45.138Z,1006.93
2018-06-11T03:39:45.140Z,1006.95
2018-06-11T03:40:45.147Z,1006.92
2018-06-11T03:41:45.139Z,1006.87
2018-06-11T03:42:45.140Z,1006.87
2018-06-11T03:43:45.140Z,1006.80
2018-06-11T03:44:45.135Z,1006.81
2018-06-11T03:45:45.138Z,1006.78
2018-06-11T03:46:45.139Z,1006.81
2018-06-11T03:47:45.140Z,1006.84
2018-06-11T03:48:45.142Z,1006.86
2018-06-11T03:49:45.142Z,1006.85
2018-06-11T03:50:45.145Z,1006.88
2018-06-11T03:51:45.152Z,1006.96
2018-06-11T03:52:45.156Z,1006.99
2018-06-11T03:53:45.143Z,1006.99
2018-06-11T03:54:45.146Z,1007.05
2018-06-11T03:55:45.146Z,1007.04
2018-06-11T03:56:45.153Z,1007.07
2018-06-11T03:57:45.146Z,1007.10
2018-06-11T03:58:45.152Z,1007.09
2018-06-11T03:59:45.145Z,1007.08
2018-06-11T04:00:45.211Z,1007.11
2018-06-11T04:01:45.147Z,1007.06
2018-06-11T04:02:45.148Z,1007.07
2018-06-11T04:03:45.146Z,1007.03
2018-06-11T04:04:45.150Z,1007.03
2018-06-11T04:05:45.151Z,1007.03
2018-06-11T04:06:45.152Z,1007.07
2018-06-11T04:07:45.154Z,1007.01
2018-06-11T04:08:45.153Z,1007.01
2018-06-11T04:09:45.156Z,1007.03
2018-06-11T04:10:45.221Z,1006.99
2018-06-11T04:11:45.155Z,1007.04
2018-06-11T04:12:45.157Z,1006.92
2018-06-11T04:13:45.155Z,1007.01
2018-06-11T04:14:45.155Z,1007.01
2018-06-11T04:15:45.155Z,1006.98
2018-06-11T04:16:45.156Z,1006.99
2018-06-11T04:17:45.156Z,1007.03
2018-06-11T04:18:45.159Z,1007.07
2018-06-11T04:19:45.157Z,1007.14
2018-06-11T04:20:45.158Z,1007.11
2018-06-11T04:21:45.160Z,1007.12
2018-06-11T04:22:45.160Z,1007.13
2018-06-11T04:23:45.159Z,1007.13
2018-06-11T04:24:45.165Z,1007.13
2018-06-11T04:25:45.161Z,1007.16
2018-06-11T04:26:45.160Z,1007.15
2018-06-11T04:27:45.165Z,1007.17
2018-06-11T04:28:45.161Z,1007.13
2018-06-11T04:29:45.169Z,1007.17
2018-06-11T04:30:45.166Z,1007.19
2018-06-11T04:31:45.165Z,1007.16
2018-06-11T04:32:45.168Z,1007.15
2018-06-11T04:33:45.167Z,1007.14
2018-06-11T04:34:45.179Z,1007.16
2018-06-11T04:35:45.163Z,1007.13
2018-06-11T04:36:45.165Z,1007.14
2018-06-11T04:37:45.186Z,1007.14
2018-06-11T04:38:45.167Z,1007.17
2018-06-11T04:39:45.167Z,1007.19
2018-06-11T04:40:45.170Z,1007.19
2018-06-11T04:41:45.169Z,1007.21
2018-06-11T04:42:45.168Z,1007.24
2018-06-11T04:43:45.169Z,1007.22
2018-06-11T04:44:45.172Z,1007.20
2018-06-11T04:45:45.175Z,1007.20
2018-06-11T04:46:45.173Z,1007.18
2018-06-11T04:47:45.171Z,1007.19
2018-06-11T04:48:45.172Z,1007.19
2018-06-11T04:49:45.172Z,1007.17
2018-06-11T04:50:45.173Z,1007.17
2018-06-11T04:51:45.171Z,1007.17
2018-06-11T04:52:45.176Z,1007.17
2018-06-11T04:53:45.178Z,1007.20
2018-06-11T04:54:45.178Z,1007.16
2018-06-11T04:55:45.175Z,1007.18
2018-06-11T04:56:45.177Z,1007.21
2018-06-11T04:57:45.178Z,1007.22
2018-06-11T04:58:45.179Z,1007.23
2018-06-11T04:59:45.177Z,1007.22
2018-06-11T05:00:45.179Z,1007.25
2018-06-11T05:01:45.188Z,1007.28
2018-06-11T05:02:45.182Z,1007.28
2018-06-11T05:03:45.183Z,1007.26
2018-06-11T05:04:45.183Z,1007.32
2018-06-11T05:05:45.184Z,1007.28
2018-06-11T05:06:45.185Z,1007.26
2018-06-11T05:07:45.184Z,1007.31
2018-06-11T05:08:45.184Z,1007.26
2018-06-11T05:09:45.187Z,1007.28
2018-06-11T05:10:45.188Z,1007.31
2018-06-11T05:11:45.185Z,1007.31
2018-06-11T05:12:45.190Z,1007.34
2018-06-11T05:13:45.189Z,1007.31
2018-06-11T05:14:45.193Z,1007.36
2018-06-11T05:15:45.188Z,1007.35
2018-06-11T05:16:45.190Z,1007.38
2018-06-11T05:17:45.195Z,1007.44
2018-06-11T05:18:45.195Z,1007.39
2018-06-11T05:19:45.197Z,1007.43
2018-06-11T05:20:45.195Z,1007.43
2018-06-11T05:21:45.195Z,1007.45
2018-06-11T05:22:45.199Z,1007.48
2018-06-11T05:23:45.201Z,1007.52
2018-06-11T05:24:45.200Z,1007.52
2018-06-11T05:25:45.201Z,1007.55
2018-06-11T05:26:45.201Z,1007.53
2018-06-11T05:27:45.202Z,1007.49
2018-06-11T05:28:45.210Z,1007.50
2018-06-11T05:29:45.204Z,1007.53
2018-06-11T05:30:45.206Z,1007.54
2018-06-11T05:31:45.205Z,1007.50
2018-06-11T05:32:45.212Z,1007.49
2018-06-11T05:33:45.209Z,1007.50
2018-06-11T05:34:45.257Z,1007.48
2018-06-11T05:35:45.211Z,1007.50
2018-06-11T05:36:45.212Z,1007.51
2018-06-11T05:37:45.213Z,1007.52
2018-06-11T05:38:45.217Z,1007.53
2018-06-11T05:39:45.216Z,1007.53
2018-06-11T05:40:45.218Z,1007.54
2018-06-11T05:41:45.218Z,1007.52
2018-06-11T05:42:45.222Z,1007.53
2018-06-11T05:43:45.221Z,1007.55
2018-06-11T05:44:45.222Z,1007.52
2018-06-11T05:45:45.223Z,1007.55
2018-06-11T05:46:45.225Z,1007.57
2018-06-11T05:47:45.228Z,1007.58
2018-06-11T05:48:45.227Z,1007.59
2018-06-11T05:49:45.229Z,1007.66
2018-06-11T05:50:45.231Z,1007.70
2018-06-11T05:51:45.234Z,1007.66
2018-06-11T05:52:45.232Z,1007.67
2018-06-11T05:53:45.239Z,1007.69
2018-06-11T05:54:45.236Z,1007.64
2018-06-11T05:55:45.240Z,1007.63
2018-06-11T05:56:45.240Z,1007.65
2018-06-11T05:57:45.239Z,1007.65
2018-06-11T05:58:45.240Z,1007.64
2018-06-11T05:59:45.241Z,1007.67
2018-06-11T06:00:45.242Z,1007.64
2018-06-11T06:01:45.244Z,1007.70
2018-06-11T06:02:45.245Z,1007.70
2018-06-11T06:03:45.249Z,1007.71
2018-06-11T06:04:45.248Z,1007.70
2018-06-11T06:05:45.253Z,1007.68
2018-06-11T06:06:45.253Z,1007.67
2018-06-11T06:07:45.251Z,1007.72
2018-06-11T06:08:45.264Z,1007.70
2018-06-11T06:09:45.256Z,1007.71
2018-06-11T06:10:45.257Z,1007.71
2018-06-11T06:11:45.257Z,1007.73
2018-06-11T06:12:45.259Z,1007.68
2018-06-11T06:13:45.259Z,1007.66
2018-06-11T06:14:45.262Z,1007.67
2018-06-11T06:15:45.263Z,1007.65
2018-06-11T06:16:45.265Z,1007.63
2018-06-11T06:17:45.269Z,1007.66
2018-06-11T06:18:45.268Z,1007.63
2018-06-11T06:19:45.268Z,1007.69
2018-06-11T06:20:45.272Z,1007.69
2018-06-11T06:21:45.271Z,1007.73
2018-06-11T06:22:45.273Z,1007.72
2018-06-11T06:23:45.272Z,1007.69
2018-06-11T06:24:45.278Z,1007.69
2018-06-11T06:25:45.278Z,1007.71
2018-06-11T06:26:45.321Z,1007.70
2018-06-11T06:27:45.283Z,1007.71
2018-06-11T06:28:45.283Z,1007.70
2018-06-11T06:29:45.286Z,1007.70
2018-06-11T06:30:45.286Z,1007.68
2018-06-11T06:31:45.286Z,1007.70
2018-06-11T06:32:45.290Z,1007.66
2018-06-11T06:33:45.289Z,1007.67
2018-06-11T06:34:45.337Z,1007.70
2018-06-11T06:35:45.295Z,1007.69
2018-06-11T06:36:45.294Z,1007.64
2018-06-11T06:37:45.297Z,1007.63
2018-06-11T06:38:45.298Z,1007.64
2018-06-11T06:39:45.301Z,1007.58
2018-06-11T06:40:45.301Z,1007.64
2018-06-11T06:41:45.304Z,1007.62
2018-06-11T06:42:45.306Z,1007.62
2018-06-11T06:43:45.305Z,1007.61
2018-06-11T06:44:45.307Z,1007.63
2018-06-11T06:45:45.307Z,1007.63
2018-06-11T06:46:45.315Z,1007.63
2018-06-11T06:47:45.313Z,1007.70
2018-06-11T06:48:45.312Z,1007.70
2018-06-11T06:49:45.317Z,1007.69
2018-06-11T06:50:45.318Z,1007.67
2018-06-11T06:51:45.320Z,1007.71
2018-06-11T06:52:45.328Z,1007.69
2018-06-11T06:53:45.371Z,1007.66
2018-06-11T06:54:45.326Z,1007.66
2018-06-11T06:55:45.327Z,1007.64
2018-06-11T06:56:45.328Z,1007.68
2018-06-11T06:57:45.338Z,1007.68
2018-06-11T06:58:45.335Z,1007.65
2018-06-11T06:59:45.333Z,1007.67
2018-06-11T07:00:45.338Z,1007.65
2018-06-11T07:01:45.337Z,1007.70
2018-06-11T07:02:45.339Z,1007.72
2018-06-11T07:03:45.342Z,1007.71
2018-06-11T07:04:45.341Z,1007.73
2018-06-11T07:05:45.347Z,1007.75
2018-06-11T07:06:45.348Z,1007.74
2018-06-11T07:07:45.349Z,1007.73
2018-06-11T07:08:45.350Z,1007.77
2018-06-11T07:09:45.358Z,1007.69
2018-06-11T07:10:45.357Z,1007.66
2018-06-11T07:11:45.357Z,1007.75
2018-06-11T07:12:45.360Z,1007.68
2018-06-11T07:13:45.403Z,1007.68
2018-06-11T07:14:45.364Z,1007.66
2018-06-11T07:15:45.365Z,1007.67
2018-06-11T07:16:45.370Z,1007.69
2018-06-11T07:17:45.372Z,1007.68
2018-06-11T07:18:45.376Z,1007.63
2018-06-11T07:19:45.375Z,1007.62
2018-06-11T07:20:45.379Z,1007.56
2018-06-11T07:21:45.382Z,1007.54
2018-06-11T07:22:45.384Z,1007.55
2018-06-11T07:23:45.389Z,1007.54
2018-06-11T07:24:45.389Z,1007.60
2018-06-11T07:25:45.392Z,1007.60
2018-06-11T07:26:45.394Z,1007.64
2018-06-11T07:27:45.396Z,1007.60
2018-06-11T07:28:45.398Z,1007.60
2018-06-11T07:29:45.402Z,1007.59
2018-06-11T07:30:45.405Z,1007.58
2018-06-11T07:31:45.406Z,1007.56
2018-06-11T07:32:45.409Z,1007.60
2018-06-11T07:33:45.411Z,1007.65
2018-06-11T07:34:45.417Z,1007.67
2018-06-11T07:35:45.416Z,1007.68
2018-06-11T07:36:45.420Z,1007.73
2018-06-11T07:37:45.426Z,1007.74
2018-06-11T07:38:45.420Z,1007.71
2018-06-11T07:39:45.456Z,1007.68
2018-06-11T07:40:45.430Z,1007.74
2018-06-11T07:41:45.475Z,1007.74
2018-06-11T07:42:45.436Z,1007.77
2018-06-11T07:43:45.452Z,1007.76
2018-06-11T07:44:45.458Z,1007.69
2018-06-11T07:45:45.445Z,1007.63
2018-06-11T07:46:45.449Z,1007.61
2018-06-11T07:47:45.492Z,1007.65
2018-06-11T07:48:45.459Z,1007.63
2018-06-11T07:49:45.461Z,1007.64
2018-06-11T07:50:45.469Z,1007.71
2018-06-11T07:51:45.483Z,1007.70
2018-06-11T07:52:45.522Z,1007.75
2018-06-11T07:53:45.474Z,1007.70
2018-06-11T07:54:45.476Z,1007.70
2018-06-11T07:55:45.504Z,1007.73
2018-06-11T07:56:45.485Z,1007.76
2018-06-11T07:57:45.491Z,1007.72
2018-06-11T07:58:45.497Z,1007.69
2018-06-11T07:59:45.501Z,1007.80
2018-06-11T08:00:45.508Z,1007.78
2018-06-11T08:01:45.509Z,1007.80
2018-06-11T08:02:45.543Z,1007.72
2018-06-11T08:03:45.520Z,1007.75
2018-06-11T08:04:45.524Z,1007.73
2018-06-11T08:05:45.582Z,1007.66
2018-06-11T08:06:45.546Z,1007.72
2018-06-11T08:07:45.538Z,1007.75
2018-06-11T08:08:45.549Z,1007.74
2018-06-11T08:09:45.799Z,1007.75
2018-06-11T08:10:45.555Z,1007.74
2018-06-11T08:11:45.562Z,1007.71
2018-06-11T08:12:45.567Z,1007.70
2018-06-11T08:13:45.652Z,1007.71
2018-06-11T08:14:45.582Z,1007.75
2018-06-11T08:15:45.581Z,1007.87
2018-06-11T08:16:45.585Z,1007.84
2018-06-11T08:17:45.591Z,1007.87
2018-06-11T08:18:45.595Z,1007.89
2018-06-11T08:19:45.598Z,1007.91
2018-06-11T08:20:45.791Z,1007.92
2018-06-11T08:21:45.611Z,1007.89
2018-06-11T08:22:45.613Z,1007.92
2018-06-11T08:23:45.615Z,1007.93
2018-06-11T08:24:45.650Z,1007.86
2018-06-11T08:25:45.625Z,1007.87
2018-06-11T08:26:45.759Z,1007.86
2018-06-11T08:27:45.633Z,1007.85
2018-06-11T08:28:45.638Z,1007.88
2018-06-11T08:29:45.646Z,1007.91
2018-06-11T08:30:45.652Z,1007.86
2018-06-11T08:31:45.650Z,1007.85
2018-06-11T08:32:45.655Z,1007.76
2018-06-11T08:33:45.662Z,1007.83
2018-06-11T08:34:45.705Z,1007.85
2018-06-11T08:35:45.729Z,1007.85
2018-06-11T08:36:45.675Z,1007.88
2018-06-11T08:37:45.671Z,1007.86
2018-06-11T08:38:45.681Z,1007.86
2018-06-11T08:39:45.752Z,1007.88
2018-06-11T08:40:45.684Z,1007.84
2018-06-11T08:41:45.693Z,1007.90
2018-06-11T08:42:45.696Z,1007.87
2018-06-11T08:43:45.698Z,1007.83
2018-06-11T08:44:45.703Z,1007.84
2018-06-11T08:45:45.706Z,1007.85
2018-06-11T08:46:45.712Z,1007.86
2018-06-11T08:47:45.714Z,1007.89
2018-06-11T08:48:45.719Z,1007.89
2018-06-11T08:49:45.725Z,1007.94
2018-06-11T08:50:45.727Z,1008.15
2018-06-11T08:51:45.728Z,1008.12
2018-06-11T08:52:45.734Z,1008.15
2018-06-11T08:53:45.740Z,1007.96
2018-06-11T08:54:45.775Z,1007.98
2018-06-11T08:55:45.744Z,1007.97
2018-06-11T08:56:45.751Z,1007.96
2018-06-11T08:57:45.753Z,1007.98
2018-06-11T08:58:45.757Z,1008.02
2018-06-11T08:59:45.772Z,1008.03
2018-06-11T09:00:45.763Z,1008.00
2018-06-11T09:01:45.772Z,1008.03
2018-06-11T09:02:45.774Z,1008.02
2018-06-11T09:03:45.782Z,1008.06
2018-06-11T09:04:45.784Z,1008.05
2018-06-11T09:05:45.787Z,1008.08
2018-06-11T09:06:45.828Z,1008.12
2018-06-11T09:07:45.794Z,1008.14
2018-06-11T09:08:45.799Z,1008.20
2018-06-11T09:09:45.802Z,1008.18
2018-06-11T09:10:45.806Z,1008.22
2018-06-11T09:11:45.809Z,1008.16
2018-06-11T09:12:45.816Z,1008.13
2018-06-11T09:13:45.822Z,1008.19
2018-06-11T09:14:45.825Z,1008.16
2018-06-11T09:15:45.825Z,1008.20
2018-06-11T09:16:45.832Z,1008.13
2018-06-11T09:17:45.839Z,1008.10
2018-06-11T09:18:45.843Z,1008.13
2018-06-11T09:19:45.842Z,1008.18
2018-06-11T09:20:45.847Z,1008.15
2018-06-11T09:21:45.850Z,1008.13
2018-06-11T09:22:45.855Z,1008.17
2018-06-11T09:23:45.858Z,1008.21
2018-06-11T09:24:45.860Z,1008.14
2018-06-11T09:25:45.866Z,1008.19
2018-06-11T09:26:45.869Z,1008.15
2018-06-11T09:27:45.874Z,1008.20
2018-06-11T09:28:45.874Z,1008.23
2018-06-11T09:29:45.879Z,1008.25
2018-06-11T09:30:45.935Z,1008.27
2018-06-11T09:31:45.889Z,1008.26
2018-06-11T09:32:45.891Z,1008.28
2018-06-11T09:33:45.893Z,1008.20
2018-06-11T09:34:45.896Z,1008.28
2018-06-11T09:35:45.902Z,1008.33
2018-06-11T09:36:45.903Z,1008.35
2018-06-11T09:37:45.910Z,1008.31
2018-06-11T09:38:45.910Z,1008.37
2018-06-11T09:39:45.913Z,1008.34
2018-06-11T09:40:45.917Z,1008.34
2018-06-11T09:41:45.922Z,1008.35
2018-06-11T09:42:45.919Z,1008.36
2018-06-11T09:43:45.972Z,1008.37
2018-06-11T09:44:45.929Z,1008.32
2018-06-11T09:45:45.934Z,1008.35
2018-06-11T09:46:45.937Z,1008.34
2018-06-11T09:47:45.941Z,1008.34
2018-06-11T09:48:45.944Z,1008.31
2018-06-11T09:49:45.947Z,1008.26
2018-06-11T09:50:46.054Z,1008.25
2018-06-11T09:51:45.955Z,1008.25
2018-06-11T09:52:45.956Z,1008.27
2018-06-11T09:53:45.961Z,1008.23
2018-06-11T09:54:45.964Z,1008.19
2018-06-11T09:55:45.989Z,1008.20
2018-06-11T09:56:45.971Z,1008.30
2018-06-11T09:57:45.975Z,1008.31
2018-06-11T09:58:45.978Z,1008.29
2018-06-11T09:59:45.980Z,1008.32
2018-06-11T10:00:45.983Z,1008.28
2018-06-11T10:01:45.986Z,1008.24
2018-06-11T10:02:46.150Z,1008.23
2018-06-11T10:03:45.995Z,1008.20
2018-06-11T10:04:45.997Z,1008.25
2018-06-11T10:05:46.001Z,1008.24
2018-06-11T10:06:46.005Z,1008.26
2018-06-11T10:07:46.010Z,1008.30
2018-06-11T10:08:46.011Z,1008.32
2018-06-11T10:09:46.015Z,1008.33
2018-06-11T10:10:46.017Z,1008.31
2018-06-11T10:11:46.019Z,1008.33
2018-06-11T10:12:46.215Z,1008.27
2018-06-11T10:13:46.030Z,1008.37
2018-06-11T10:14:46.031Z,1008.33
2018-06-11T10:15:46.033Z,1008.29
2018-06-11T10:16:46.037Z,1008.29
2018-06-11T10:17:46.185Z,1008.26
2018-06-11T10:18:46.042Z,1008.21
2018-06-11T10:19:46.046Z,1008.25
2018-06-11T10:20:46.048Z,1008.19
2018-06-11T10:21:46.053Z,1008.20
2018-06-11T10:22:46.057Z,1008.25
2018-06-11T10:23:46.060Z,1008.21
2018-06-11T10:24:46.117Z,1008.17
2018-06-11T10:25:46.067Z,1008.22
2018-06-11T10:26:46.073Z,1008.17
2018-06-11T10:27:46.073Z,1008.22
2018-06-11T10:28:46.074Z,1008.16
2018-06-11T10:29:46.228Z,1008.22
2018-06-11T10:30:46.088Z,1008.17
2018-06-11T10:31:46.094Z,1008.15
2018-06-11T10:32:46.098Z,1008.10
2018-06-11T10:33:46.095Z,1008.11
2018-06-11T10:34:46.450Z,1008.16
2018-06-11T10:35:46.103Z,1008.18
2018-06-11T10:36:46.106Z,1008.10
2018-06-11T10:37:46.110Z,1008.15
2018-06-11T10:38:46.114Z,1008.13
2018-06-11T10:39:46.121Z,1008.11
2018-06-11T10:40:46.128Z,1008.11
2018-06-11T10:41:46.128Z,1008.10
2018-06-11T10:42:46.314Z,1008.13
2018-06-11T10:43:46.138Z,1008.11
2018-06-11T10:44:46.330Z,1008.10
2018-06-11T10:45:46.149Z,1008.08
2018-06-11T10:46:46.148Z,1008.06
2018-06-11T10:47:46.415Z,1008.04
2018-06-11T10:48:46.156Z,1008.04
2018-06-11T10:49:46.161Z,1008.04
2018-06-11T10:50:46.164Z,1008.06
2018-06-11T10:51:46.168Z,1008.04
2018-06-11T10:52:46.171Z,1008.06
2018-06-11T10:53:46.175Z,1008.05
2018-06-11T10:54:46.180Z,1008.03
2018-06-11T10:55:46.187Z,1007.93
2018-06-11T10:56:46.387Z,1008.00
2018-06-11T10:57:46.191Z,1008.02
2018-06-11T10:58:46.197Z,1008.00
2018-06-11T10:59:46.199Z,1008.02
2018-06-11T11:00:46.203Z,1007.98
2018-06-11T11:01:46.208Z,1007.95
2018-06-11T11:02:46.253Z,1007.92
2018-06-11T11:03:46.217Z,1007.92
2018-06-11T11:04:46.221Z,1007.91
2018-06-11T11:05:46.260Z,1007.92
2018-06-11T11:06:46.229Z,1007.92
2018-06-11T11:07:46.228Z,1007.91
2018-06-11T11:08:46.240Z,1007.85
2018-06-11T11:09:46.237Z,1007.90
2018-06-11T11:10:46.241Z,1007.86
2018-06-11T11:11:46.244Z,1007.89
2018-06-11T11:12:46.248Z,1007.87
2018-06-11T11:13:46.447Z,1007.94
2018-06-11T11:14:46.259Z,1007.95
2018-06-11T11:15:46.263Z,1007.89
2018-06-11T11:16:46.269Z,1007.87
2018-06-11T11:17:46.408Z,1007.86
2018-06-11T11:18:46.527Z,1007.85
2018-06-11T11:19:46.273Z,1007.79
2018-06-11T11:20:46.359Z,1007.79
2018-06-11T11:21:46.281Z,1007.77
2018-06-11T11:22:46.283Z,1007.86
2018-06-11T11:23:46.400Z,1007.83
2018-06-11T11:24:46.560Z,1007.83
2018-06-11T11:25:46.517Z,1007.81
2018-06-11T11:26:46.301Z,1007.76
2018-06-11T11:27:46.301Z,1007.82
2018-06-11T11:28:46.397Z,1007.78
2018-06-11T11:29:46.308Z,1007.74
2018-06-11T11:30:46.311Z,1007.75
2018-06-11T11:31:46.318Z,1007.71
2018-06-11T11:32:46.319Z,1007.76
2018-06-11T11:33:46.334Z,1007.74
2018-06-11T11:34:46.333Z,1007.74
2018-06-11T11:35:46.331Z,1007.75
2018-06-11T11:36:46.335Z,1007.73
2018-06-11T11:37:46.334Z,1007.70
2018-06-11T11:38:46.340Z,1007.72
2018-06-11T11:39:46.569Z,1007.71
2018-06-11T11:40:46.347Z,1007.73
2018-06-11T11:41:46.350Z,1007.68
2018-06-11T11:42:46.352Z,1007.60
2018-06-11T11:43:46.355Z,1007.58
2018-06-11T11:44:46.358Z,1007.60
2018-06-11T11:45:46.361Z,1007.64
2018-06-11T11:46:46.373Z,1007.55
2018-06-11T11:47:46.447Z,1007.56
2018-06-11T11:48:46.371Z,1007.53
2018-06-11T11:49:46.390Z,1007.51
2018-06-11T11:50:46.377Z,1007.58
2018-06-11T11:51:46.432Z,1007.57
2018-06-11T11:52:46.383Z,1007.59
2018-06-11T11:53:46.388Z,1007.64
2018-06-11T11:54:46.396Z,1007.61
2018-06-11T11:55:46.396Z,1007.61
2018-06-11T11:56:46.400Z,1007.55
2018-06-11T11:57:46.403Z,1007.55
2018-06-11T11:58:46.405Z,1007.50
2018-06-11T11:59:46.457Z,1007.56
2018-06-11T12:00:46.410Z,1007.55
2018-06-11T12:01:46.434Z,1007.56
2018-06-11T12:02:46.417Z,1007.50
2018-06-11T12:03:46.424Z,1007.60
2018-06-11T12:04:46.426Z,1007.62
2018-06-11T12:05:46.466Z,1007.57